sensor_id;sensor_type;location;lat;lon;timestamp;pressure;altitude;pressure_sealevel;temperature;humidity
46718;BME280;32448;44.960;-0.698;2022-09-11T00:01:05;101525.69;;;16.82;100.00
46718;BME280;32448;44.960;-0.698;2022-09-11T00:03:32;101531.84;;;16.77;100.00
46718;BME280;32448;44.960;-0.698;2022-09-11T00:06:03;101521.28;;;16.78;100.00
46718;BME280;32448;44.960;-0.698;2022-09-11T00:08:29;101503.63;;;16.69;100.00
46718;BME280;32448;44.960;-0.698;2022-09-11T00:11:02;101516.88;;;16.80;100.00
46718;BME280;32448;44.960;-0.698;2022-09-11T00:13:28;101519.53;;;16.77;100.00
46718;BME280;32448;44.960;-0.698;2022-09-11T00:15:55;101508.06;;;16.72;100.00
46718;BME280;32448;44.960;-0.698;2022-09-11T00:18:21;101499.25;;;16.67;100.00
46718;BME280;32448;44.960;-0.698;2022-09-11T00:20:52;101495.69;;;16.62;100.00
46718;BME280;32448;44.960;-0.698;2022-09-11T00:23:19;101510.69;;;16.66;100.00
46718;BME280;32448;44.960;-0.698;2022-09-11T00:25:46;101492.13;;;16.54;100.00
46718;BME280;32448;44.960;-0.698;2022-09-11T00:28:18;101502.75;;;16.63;100.00
46718;BME280;32448;44.960;-0.698;2022-09-11T00:30:46;101489.50;;;16.57;100.00
46718;BME280;32448;44.960;-0.698;2022-09-11T00:33:13;101487.78;;;16.62;100.00
46718;BME280;32448;44.960;-0.698;2022-09-11T00:35:40;101489.47;;;16.54;100.00
46718;BME280;32448;44.960;-0.698;2022-09-11T00:38:07;101492.13;;;16.54;100.00
46718;BME280;32448;44.960;-0.698;2022-09-11T00:40:43;101487.72;;;16.57;100.00
46718;BME280;32448;44.960;-0.698;2022-09-11T00:43:13;101502.69;;;16.58;100.00
46718;BME280;32448;44.960;-0.698;2022-09-11T00:45:38;101494.72;;;16.43;100.00
46718;BME280;32448;44.960;-0.698;2022-09-11T00:48:04;101494.72;;;16.45;100.00
46718;BME280;32448;44.960;-0.698;2022-09-11T00:50:30;101481.47;;;16.35;100.00
46718;BME280;32448;44.960;-0.698;2022-09-11T00:53:04;101492.03;;;16.35;100.00
46718;BME280;32448;44.960;-0.698;2022-09-11T00:55:34;101481.47;;;16.31;100.00
46718;BME280;32448;44.960;-0.698;2022-09-11T00:58:14;101488.53;;;16.33;100.00
46718;BME280;32448;44.960;-0.698;2022-09-11T01:00:43;101487.63;;;16.30;100.00
46718;BME280;32448;44.960;-0.698;2022-09-11T01:03:09;101488.47;;;16.23;100.00
46718;BME280;32448;44.960;-0.698;2022-09-11T01:05:36;101474.31;;;16.10;100.00
46718;BME280;32448;44.960;-0.698;2022-09-11T01:08:04;101474.34;;;16.12;100.00
46718;BME280;32448;44.960;-0.698;2022-09-11T01:10:59;101484.00;;;16.10;100.00
46718;BME280;32448;44.960;-0.698;2022-09-11T01:16:36;101484.81;;;16.02;100.00
46718;BME280;32448;44.960;-0.698;2022-09-11T01:24:53;101466.31;;;15.96;100.00
46718;BME280;32448;44.960;-0.698;2022-09-11T01:30:02;101453.94;;;15.85;100.00
46718;BME280;32448;44.960;-0.698;2022-09-11T01:35:45;101434.53;;;15.71;100.00
46718;BME280;32448;44.960;-0.698;2022-09-11T01:38:35;101439.81;;;15.74;100.00
46718;BME280;32448;44.960;-0.698;2022-09-11T01:44:12;101453.88;;;15.74;100.00
46718;BME280;32448;44.960;-0.698;2022-09-11T01:46:44;101439.75;;;15.64;100.00
46718;BME280;32448;44.960;-0.698;2022-09-11T01:49:19;101444.13;;;15.62;100.00
46718;BME280;32448;44.960;-0.698;2022-09-11T01:51:49;101441.47;;;15.55;100.00
46718;BME280;32448;44.960;-0.698;2022-09-11T01:54:18;101437.00;;;15.51;100.00
46718;BME280;32448;44.960;-0.698;2022-09-11T01:56:52;101439.66;;;15.54;100.00
46718;BME280;32448;44.960;-0.698;2022-09-11T01:59:30;101418.47;;;15.42;100.00
46718;BME280;32448;44.960;-0.698;2022-09-11T02:02:01;101438.72;;;15.47;100.00
46718;BME280;32448;44.960;-0.698;2022-09-11T02:04:36;101412.28;;;15.32;100.00
46718;BME280;32448;44.960;-0.698;2022-09-11T02:07:18;101429.00;;;15.39;100.00
46718;BME280;32448;44.960;-0.698;2022-09-11T02:09:50;101428.97;;;15.36;100.00
46718;BME280;32448;44.960;-0.698;2022-09-11T02:12:20;101436.84;;;15.31;100.00
46718;BME280;32448;44.960;-0.698;2022-09-11T02:14:50;101426.28;;;15.28;100.00
46718;BME280;32448;44.960;-0.698;2022-09-11T02:17:55;101444.75;;;15.31;100.00
46718;BME280;32448;44.960;-0.698;2022-09-11T02:20:13;101450.84;;;15.27;100.00
46718;BME280;32448;44.960;-0.698;2022-09-11T02:22:39;101438.53;;;15.21;100.00
46718;BME280;32448;44.960;-0.698;2022-09-11T02:25:05;101442.88;;;15.18;100.00
46718;BME280;32448;44.960;-0.698;2022-09-11T02:27:30;101429.66;;;15.12;100.00
46718;BME280;32448;44.960;-0.698;2022-09-11T02:29:58;101431.38;;;15.08;100.00
46718;BME280;32448;44.960;-0.698;2022-09-11T02:32:25;101443.72;;;15.12;100.00
46718;BME280;32448;44.960;-0.698;2022-09-11T02:34:53;101441.94;;;15.10;100.00
46718;BME280;32448;44.960;-0.698;2022-09-11T02:40:17;101418.97;;;14.95;100.00
46718;BME280;32448;44.960;-0.698;2022-09-11T02:42:50;101441.88;;;15.05;100.00
46718;BME280;32448;44.960;-0.698;2022-09-11T02:45:36;101424.25;;;14.97;100.00
46718;BME280;32448;44.960;-0.698;2022-09-11T02:58:32;101423.22;;;14.82;100.00
46718;BME280;32448;44.960;-0.698;2022-09-11T03:01:01;101419.69;;;14.80;100.00
46718;BME280;32448;44.960;-0.698;2022-09-11T03:03:26;101410.06;;;14.79;100.00
46718;BME280;32448;44.960;-0.698;2022-09-11T03:05:52;101430.28;;;14.86;100.00
46718;BME280;32448;44.960;-0.698;2022-09-11T03:08:18;101430.28;;;14.86;100.00
46718;BME280;32448;44.960;-0.698;2022-09-11T03:10:44;101420.53;;;14.76;100.00
46718;BME280;32448;44.960;-0.698;2022-09-11T03:13:14;101422.31;;;14.77;100.00
46718;BME280;32448;44.960;-0.698;2022-09-11T03:15:40;101423.22;;;14.79;100.00
46718;BME280;32448;44.960;-0.698;2022-09-11T03:18:08;101424.91;;;14.76;100.00
46718;BME280;32448;44.960;-0.698;2022-09-11T03:20:34;101434.56;;;14.75;100.00
46718;BME280;32448;44.960;-0.698;2022-09-11T03:23:00;101429.31;;;14.77;100.00
46718;BME280;32448;44.960;-0.698;2022-09-11T03:25:26;101416.06;;;14.71;100.00
46718;BME280;32448;44.960;-0.698;2022-09-11T03:27:53;101424.00;;;14.72;100.00
46718;BME280;32448;44.960;-0.698;2022-09-11T03:30:20;101425.72;;;14.70;100.00
46718;BME280;32448;44.960;-0.698;2022-09-11T03:32:45;101423.09;;;14.67;100.00
46718;BME280;32448;44.960;-0.698;2022-09-11T03:35:12;101406.34;;;14.62;100.00
46718;BME280;32448;44.960;-0.698;2022-09-11T03:37:38;101418.66;;;14.65;100.00
46718;BME280;32448;44.960;-0.698;2022-09-11T03:40:03;101413.41;;;14.66;100.00
46718;BME280;32448;44.960;-0.698;2022-09-11T03:42:29;101405.50;;;14.65;100.00
46718;BME280;32448;44.960;-0.698;2022-09-11T03:44:55;101416.97;;;14.73;100.00
46718;BME280;32448;44.960;-0.698;2022-09-11T03:47:21;101412.56;;;14.70;100.00
46718;BME280;32448;44.960;-0.698;2022-09-11T03:49:47;101411.69;;;14.71;100.00
46718;BME280;32448;44.960;-0.698;2022-09-11T03:52:13;101406.47;;;14.74;100.00
46718;BME280;32448;44.960;-0.698;2022-09-11T03:54:38;101398.53;;;14.70;100.00
46718;BME280;32448;44.960;-0.698;2022-09-11T03:57:05;101407.31;;;14.69;100.00
46718;BME280;32448;44.960;-0.698;2022-09-11T03:59:31;101403.75;;;14.65;100.00
46718;BME280;32448;44.960;-0.698;2022-09-11T04:01:57;101396.72;;;14.63;100.00
46718;BME280;32448;44.960;-0.698;2022-09-11T04:04:22;101375.59;;;14.58;100.00
46718;BME280;32448;44.960;-0.698;2022-09-11T04:06:48;101394.97;;;14.65;100.00
46718;BME280;32448;44.960;-0.698;2022-09-11T04:09:14;101400.25;;;14.69;100.00
46718;BME280;32448;44.960;-0.698;2022-09-11T04:11:39;101387.00;;;14.58;100.00
46718;BME280;32448;44.960;-0.698;2022-09-11T04:14:06;101393.22;;;14.65;100.00
46718;BME280;32448;44.960;-0.698;2022-09-11T04:16:32;101388.00;;;14.70;100.00
46718;BME280;32448;44.960;-0.698;2022-09-11T04:18:59;101389.75;;;14.68;100.00
46718;BME280;32448;44.960;-0.698;2022-09-11T04:21:26;101385.34;;;14.65;100.00
46718;BME280;32448;44.960;-0.698;2022-09-11T04:23:53;101386.19;;;14.63;100.00
46718;BME280;32448;44.960;-0.698;2022-09-11T04:26:21;101369.34;;;14.45;100.00
46718;BME280;32448;44.960;-0.698;2022-09-11T04:28:48;101378.22;;;14.55;100.00
46718;BME280;32448;44.960;-0.698;2022-09-11T04:31:15;101386.13;;;14.55;100.00
46718;BME280;32448;44.960;-0.698;2022-09-11T04:33:41;101389.53;;;14.49;100.00
46718;BME280;32448;44.960;-0.698;2022-09-11T04:36:09;101386.00;;;14.47;100.00
46718;BME280;32448;44.960;-0.698;2022-09-11T04:38:35;101381.50;;;14.39;100.00
46718;BME280;32448;44.960;-0.698;2022-09-11T04:41:03;101385.06;;;14.41;100.00
46718;BME280;32448;44.960;-0.698;2022-09-11T04:43:30;101392.03;;;14.39;100.00
46718;BME280;32448;44.960;-0.698;2022-09-11T04:46:16;101393.75;;;14.37;100.00
46718;BME280;32448;44.960;-0.698;2022-09-11T04:48:46;101392.84;;;14.33;100.00
46718;BME280;32448;44.960;-0.698;2022-09-11T04:53:45;101391.00;;;14.26;100.00
46718;BME280;32448;44.960;-0.698;2022-09-11T04:56:11;101406.78;;;14.28;100.00
46718;BME280;32448;44.960;-0.698;2022-09-11T04:58:40;101401.50;;;14.26;100.00
46718;BME280;32448;44.960;-0.698;2022-09-11T05:01:14;101395.34;;;14.23;100.00
46718;BME280;32448;44.960;-0.698;2022-09-11T05:03:40;101390.88;;;14.17;100.00
46718;BME280;32448;44.960;-0.698;2022-09-11T05:06:10;101392.72;;;14.23;100.00
46718;BME280;32448;44.960;-0.698;2022-09-11T05:08:36;101398.00;;;14.26;100.00
46718;BME280;32448;44.960;-0.698;2022-09-11T05:11:03;101393.66;;;14.29;100.00
46718;BME280;32448;44.960;-0.698;2022-09-11T05:13:32;101395.47;;;14.33;100.00
46718;BME280;32448;44.960;-0.698;2022-09-11T05:16:08;101389.38;;;14.34;100.00
46718;BME280;32448;44.960;-0.698;2022-09-11T05:18:34;101389.38;;;14.37;100.00
46718;BME280;32448;44.960;-0.698;2022-09-11T05:21:02;101370.88;;;14.28;100.00
46718;BME280;32448;44.960;-0.698;2022-09-11T05:23:29;101393.75;;;14.37;100.00
46718;BME280;32448;44.960;-0.698;2022-09-11T05:26:02;101375.25;;;14.28;100.00
46718;BME280;32448;44.960;-0.698;2022-09-11T05:28:29;101388.50;;;14.35;100.00
46718;BME280;32448;44.960;-0.698;2022-09-11T05:30:55;101391.97;;;14.33;100.00
46718;BME280;32448;44.960;-0.698;2022-09-11T05:33:22;101386.72;;;14.33;100.00
46718;BME280;32448;44.960;-0.698;2022-09-11T05:35:49;101387.63;;;14.35;100.00
46718;BME280;32448;44.960;-0.698;2022-09-11T05:38:16;101393.72;;;14.34;100.00
46718;BME280;32448;44.960;-0.698;2022-09-11T05:40:46;101385.78;;;14.29;100.00
46718;BME280;32448;44.960;-0.698;2022-09-11T05:43:14;101385.81;;;14.31;100.00
46718;BME280;32448;44.960;-0.698;2022-09-11T05:45:43;101369.88;;;14.18;100.00
46718;BME280;32448;44.960;-0.698;2022-09-11T05:48:10;101384.00;;;14.27;100.00
46718;BME280;32448;44.960;-0.698;2022-09-11T05:50:36;101378.72;;;14.25;100.00
46718;BME280;32448;44.960;-0.698;2022-09-11T05:53:03;101381.41;;;14.30;100.00
46718;BME280;32448;44.960;-0.698;2022-09-11T05:55:32;101367.41;;;14.31;100.00
46718;BME280;32448;44.960;-0.698;2022-09-11T05:57:59;101379.72;;;14.35;100.00
46718;BME280;32448;44.960;-0.698;2022-09-11T06:00:24;101362.16;;;14.32;100.00
46718;BME280;32448;44.960;-0.698;2022-09-11T06:02:52;101374.56;;;14.41;100.00
46718;BME280;32448;44.960;-0.698;2022-09-11T06:05:19;101370.19;;;14.43;100.00
46718;BME280;32448;44.960;-0.698;2022-09-11T06:07:45;101377.19;;;14.42;100.00
46718;BME280;32448;44.960;-0.698;2022-09-11T06:10:11;101366.72;;;14.45;100.00
46718;BME280;32448;44.960;-0.698;2022-09-11T06:12:37;101375.50;;;14.49;100.00
46718;BME280;32448;44.960;-0.698;2022-09-11T06:15:02;101374.56;;;14.42;100.00
46718;BME280;32448;44.960;-0.698;2022-09-11T06:17:28;101378.09;;;14.43;100.00
46718;BME280;32448;44.960;-0.698;2022-09-11T06:19:54;101380.75;;;14.46;100.00
46718;BME280;32448;44.960;-0.698;2022-09-11T06:22:19;101374.56;;;14.42;100.00
46718;BME280;32448;44.960;-0.698;2022-09-11T06:24:46;101369.19;;;14.35;100.00
46718;BME280;32448;44.960;-0.698;2022-09-11T06:27:13;101363.94;;;14.35;100.00
46718;BME280;32448;44.960;-0.698;2022-09-11T06:29:39;101367.44;;;14.37;100.00
46718;BME280;32448;44.960;-0.698;2022-09-11T06:32:04;101372.81;;;14.43;100.00
46718;BME280;32448;44.960;-0.698;2022-09-11T06:34:31;101371.09;;;14.45;100.00
46718;BME280;32448;44.960;-0.698;2022-09-11T06:36:57;101361.50;;;14.50;100.00
46718;BME280;32448;44.960;-0.698;2022-09-11T06:39:22;101351.91;;;14.55;100.00
46718;BME280;32448;44.960;-0.698;2022-09-11T06:41:48;101364.22;;;14.57;100.00
46718;BME280;32448;44.960;-0.698;2022-09-11T06:44:14;101370.34;;;14.58;100.00
46718;BME280;32448;44.960;-0.698;2022-09-11T06:46:40;101365.97;;;14.60;100.00
46718;BME280;32448;44.960;-0.698;2022-09-11T06:49:07;101372.13;;;14.61;100.00
46718;BME280;32448;44.960;-0.698;2022-09-11T06:51:32;101353.69;;;14.59;100.00
46718;BME280;32448;44.960;-0.698;2022-09-11T06:53:58;101344.03;;;14.56;100.00
46718;BME280;32448;44.960;-0.698;2022-09-11T06:56:27;101359.06;;;14.68;100.00
46718;BME280;32448;44.960;-0.698;2022-09-11T06:58:55;101363.59;;;14.84;100.00
46718;BME280;32448;44.960;-0.698;2022-09-11T07:01:21;101361.00;;;14.92;100.00
46718;BME280;32448;44.960;-0.698;2022-09-11T07:03:49;101351.38;;;14.92;100.00
46718;BME280;32448;44.960;-0.698;2022-09-11T07:06:21;101354.91;;;14.94;100.00
46718;BME280;32448;44.960;-0.698;2022-09-11T07:08:51;101360.25;;;15.05;100.00
46718;BME280;32448;44.960;-0.698;2022-09-11T07:11:18;101354.22;;;15.18;100.00
46718;BME280;32448;44.960;-0.698;2022-09-11T07:13:44;101363.91;;;15.22;100.00
46718;BME280;32448;44.960;-0.698;2022-09-11T07:16:10;101356.06;;;15.32;100.00
46718;BME280;32448;44.960;-0.698;2022-09-11T07:18:41;101347.31;;;15.37;100.00
46718;BME280;32448;44.960;-0.698;2022-09-11T07:21:09;101348.25;;;15.42;100.00
46718;BME280;32448;44.960;-0.698;2022-09-11T07:23:36;101350.06;;;15.52;100.00
46718;BME280;32448;44.960;-0.698;2022-09-11T07:26:07;101325.41;;;15.47;100.00
46718;BME280;32448;44.960;-0.698;2022-09-11T07:28:33;101353.66;;;15.62;100.00
46718;BME280;32448;44.960;-0.698;2022-09-11T07:31:08;101352.81;;;15.68;100.00
46718;BME280;32448;44.960;-0.698;2022-09-11T07:33:36;101336.94;;;15.60;100.00
46718;BME280;32448;44.960;-0.698;2022-09-11T07:36:08;101353.72;;;15.68;100.00
46718;BME280;32448;44.960;-0.698;2022-09-11T07:38:37;101350.22;;;15.77;100.00
46718;BME280;32448;44.960;-0.698;2022-09-11T07:41:03;101344.06;;;15.81;100.00
46718;BME280;32448;44.960;-0.698;2022-09-11T07:43:29;101345.91;;;15.94;100.00
46718;BME280;32448;44.960;-0.698;2022-09-11T07:45:55;101338.06;;;16.15;100.00
46718;BME280;32448;44.960;-0.698;2022-09-11T07:48:21;101333.72;;;16.38;100.00
46718;BME280;32448;44.960;-0.698;2022-09-11T07:51:01;101338.16;;;16.59;100.00
46718;BME280;32448;44.960;-0.698;2022-09-11T07:56:03;101329.44;;;16.86;100.00
46718;BME280;32448;44.960;-0.698;2022-09-11T07:58:33;101317.97;;;17.02;100.00
46718;BME280;32448;44.960;-0.698;2022-09-11T08:01:00;101303.91;;;17.11;100.00
46718;BME280;32448;44.960;-0.698;2022-09-11T08:03:27;101328.47;;;17.53;100.00
46718;BME280;32448;44.960;-0.698;2022-09-11T08:05:57;101318.75;;;17.58;100.00
46718;BME280;32448;44.960;-0.698;2022-09-11T08:08:23;101304.66;;;17.62;100.00
46718;BME280;32448;44.960;-0.698;2022-09-11T08:10:49;101322.25;;;17.75;100.00
46718;BME280;32448;44.960;-0.698;2022-09-11T08:13:15;101316.09;;;17.74;100.00
46718;BME280;32448;44.960;-0.698;2022-09-11T08:15:48;101323.06;;;17.91;100.00
46718;BME280;32448;44.960;-0.698;2022-09-11T08:18:15;101302.78;;;17.93;100.00
46718;BME280;32448;44.960;-0.698;2022-09-11T08:20:40;101319.53;;;17.98;100.00
46718;BME280;32448;44.960;-0.698;2022-09-11T08:23:07;101319.38;;;18.24;100.00
46718;BME280;32448;44.960;-0.698;2022-09-11T08:25:37;101321.03;;;18.40;100.00
46718;BME280;32448;44.960;-0.698;2022-09-11T08:28:03;101331.59;;;18.46;100.00
46718;BME280;32448;44.960;-0.698;2022-09-11T08:30:31;101337.69;;;18.63;100.00
46718;BME280;32448;44.960;-0.698;2022-09-11T08:32:57;101334.03;;;18.78;100.00
46718;BME280;32448;44.960;-0.698;2022-09-11T08:35:24;101331.34;;;18.85;100.00
46718;BME280;32448;44.960;-0.698;2022-09-11T08:37:51;101333.78;;;19.10;100.00
46718;BME280;32448;44.960;-0.698;2022-09-11T08:40:17;101323.97;;;19.19;100.00
46718;BME280;32448;44.960;-0.698;2022-09-11T08:42:44;101336.06;;;19.46;100.00
46718;BME280;32448;44.960;-0.698;2022-09-11T08:45:19;101328.00;;;19.60;100.00
46718;BME280;32448;44.960;-0.698;2022-09-11T08:47:52;101327.84;;;19.74;100.00
46718;BME280;32448;44.960;-0.698;2022-09-11T08:50:29;101328.50;;;19.91;100.00
46718;BME280;32448;44.960;-0.698;2022-09-11T08:53:00;101332.63;;;20.15;100.00
46718;BME280;32448;44.960;-0.698;2022-09-11T08:55:43;101317.22;;;20.43;100.00
46718;BME280;32448;44.960;-0.698;2022-09-11T08:58:37;101325.56;;;20.75;97.02
46718;BME280;32448;44.960;-0.698;2022-09-11T09:01:49;101334.38;;;20.77;100.00
46718;BME280;32448;44.960;-0.698;2022-09-11T09:04:42;101329.72;;;20.91;95.20
46718;BME280;32448;44.960;-0.698;2022-09-11T09:07:20;101330.25;;;21.12;95.50
46718;BME280;32448;44.960;-0.698;2022-09-11T09:12:37;101316.00;;;21.19;95.05
46718;BME280;32448;44.960;-0.698;2022-09-11T09:20:27;101329.97;;;21.31;87.38
46718;BME280;32448;44.960;-0.698;2022-09-11T09:22:58;101329.78;;;21.40;91.78
46718;BME280;32448;44.960;-0.698;2022-09-11T09:25:25;101318.28;;;21.38;87.04
46718;BME280;32448;44.960;-0.698;2022-09-11T09:27:55;101326.03;;;21.51;88.92
46718;BME280;32448;44.960;-0.698;2022-09-11T09:30:27;101312.56;;;21.58;85.34
46718;BME280;32448;44.960;-0.698;2022-09-11T09:35:46;101300.94;;;21.64;85.91
46718;BME280;32448;44.960;-0.698;2022-09-11T09:38:20;101317.34;;;21.86;81.08
46718;BME280;32448;44.960;-0.698;2022-09-11T09:41:01;101314.34;;;22.02;78.05
46718;BME280;32448;44.960;-0.698;2022-09-11T09:44:01;101308.22;;;21.99;81.16
46718;BME280;32448;44.960;-0.698;2022-09-11T09:49:07;101306.88;;;22.20;82.72
46718;BME280;32448;44.960;-0.698;2022-09-11T09:51:33;101291.84;;;22.17;82.34
46718;BME280;32448;44.960;-0.698;2022-09-11T09:54:00;101307.44;;;22.34;81.43
46718;BME280;32448;44.960;-0.698;2022-09-11T09:56:28;101304.25;;;22.55;75.60
46718;BME280;32448;44.960;-0.698;2022-09-11T09:59:01;101299.56;;;22.65;75.81
46718;BME280;32448;44.960;-0.698;2022-09-11T10:01:47;101304.31;;;22.91;71.48
46718;BME280;32448;44.960;-0.698;2022-09-11T10:04:21;101296.03;;;23.01;71.52
46718;BME280;32448;44.960;-0.698;2022-09-11T10:06:50;101292.16;;;23.13;71.85
46718;BME280;32448;44.960;-0.698;2022-09-11T10:09:24;101288.50;;;23.17;70.63
46718;BME280;32448;44.960;-0.698;2022-09-11T10:11:56;101290.38;;;23.13;72.90
46718;BME280;32448;44.960;-0.698;2022-09-11T10:14:28;101273.09;;;23.28;64.45
46718;BME280;32448;44.960;-0.698;2022-09-11T10:16:57;101287.41;;;23.58;63.09
46718;BME280;32448;44.960;-0.698;2022-09-11T10:19:36;101279.31;;;23.61;67.59
46718;BME280;32448;44.960;-0.698;2022-09-11T10:22:29;101284.38;;;23.70;65.13
46718;BME280;32448;44.960;-0.698;2022-09-11T10:27:32;101268.03;;;24.10;59.43
46718;BME280;32448;44.960;-0.698;2022-09-11T10:30:01;101276.53;;;24.24;59.67
46718;BME280;32448;44.960;-0.698;2022-09-11T10:32:27;101286.44;;;24.49;60.01
46718;BME280;32448;44.960;-0.698;2022-09-11T10:34:53;101284.38;;;24.57;60.33
46718;BME280;32448;44.960;-0.698;2022-09-11T10:37:25;101281.00;;;24.78;58.98
46718;BME280;32448;44.960;-0.698;2022-09-11T10:40:03;101275.53;;;25.08;56.27
46718;BME280;32448;44.960;-0.698;2022-09-11T10:42:30;101273.69;;;25.10;59.17
46718;BME280;32448;44.960;-0.698;2022-09-11T10:45:11;101268.00;;;25.19;59.05
46718;BME280;32448;44.960;-0.698;2022-09-11T10:47:38;101267.72;;;25.28;57.63
46718;BME280;32448;44.960;-0.698;2022-09-11T10:50:33;101266.56;;;25.58;55.11
46718;BME280;32448;44.960;-0.698;2022-09-11T10:53:14;101268.94;;;25.67;55.87
46718;BME280;32448;44.960;-0.698;2022-09-11T10:55:47;101259.03;;;25.69;54.45
46718;BME280;32448;44.960;-0.698;2022-09-11T10:58:18;101257.03;;;25.98;53.83
46718;BME280;32448;44.960;-0.698;2022-09-11T11:00:47;101250.53;;;26.05;55.98
46718;BME280;32448;44.960;-0.698;2022-09-11T11:03:18;101251.16;;;26.11;53.84
46718;BME280;32448;44.960;-0.698;2022-09-11T11:09:22;101260.72;;;26.40;50.91
46718;BME280;32448;44.960;-0.698;2022-09-11T11:17:59;101224.66;;;26.69;52.37
46718;BME280;32448;44.960;-0.698;2022-09-11T11:20:43;101253.69;;;27.02;52.77
46718;BME280;32448;44.960;-0.698;2022-09-11T11:31:36;101235.59;;;27.46;47.71
46718;BME280;32448;44.960;-0.698;2022-09-11T11:37:13;101233.31;;;27.57;48.72
46718;BME280;32448;44.960;-0.698;2022-09-11T11:42:18;101227.09;;;27.75;48.09
46718;BME280;32448;44.960;-0.698;2022-09-11T11:44:53;101224.31;;;27.96;47.47
46718;BME280;32448;44.960;-0.698;2022-09-11T11:47:28;101218.81;;;27.99;48.23
46718;BME280;32448;44.960;-0.698;2022-09-11T11:55:27;101183.91;;;28.16;48.03
46718;BME280;32448;44.960;-0.698;2022-09-11T11:58:04;101192.25;;;28.29;45.18
46718;BME280;32448;44.960;-0.698;2022-09-11T12:00:42;101193.22;;;28.28;47.61
46718;BME280;32448;44.960;-0.698;2022-09-11T12:03:51;101190.78;;;28.40;47.50
46718;BME280;32448;44.960;-0.698;2022-09-11T12:06:19;101181.59;;;28.27;46.15
46718;BME280;32448;44.960;-0.698;2022-09-11T12:08:45;101173.88;;;28.38;45.96
46718;BME280;32448;44.960;-0.698;2022-09-11T12:11:29;101174.19;;;28.49;45.73
46718;BME280;32448;44.960;-0.698;2022-09-11T12:13:56;101165.38;;;28.63;46.21
46718;BME280;32448;44.960;-0.698;2022-09-11T12:16:31;101169.16;;;28.78;45.32
46718;BME280;32448;44.960;-0.698;2022-09-11T12:19:17;101159.69;;;29.04;43.28
46718;BME280;32448;44.960;-0.698;2022-09-11T12:24:21;101156.81;;;29.07;45.51
46718;BME280;32448;44.960;-0.698;2022-09-11T12:29:56;101149.50;;;29.26;45.67
46718;BME280;32448;44.960;-0.698;2022-09-11T12:32:25;101147.72;;;29.42;43.00
46718;BME280;32448;44.960;-0.698;2022-09-11T12:37:34;101141.06;;;29.49;43.38
46718;BME280;32448;44.960;-0.698;2022-09-11T12:44:58;101119.06;;;29.57;43.83
46718;BME280;32448;44.960;-0.698;2022-09-11T12:47:32;101117.06;;;29.76;42.14
46718;BME280;32448;44.960;-0.698;2022-09-11T12:52:45;101105.84;;;29.68;42.07
46718;BME280;32448;44.960;-0.698;2022-09-11T12:57:55;101106.44;;;29.89;42.64
46718;BME280;32448;44.960;-0.698;2022-09-11T13:00:32;101104.00;;;29.84;42.35
46718;BME280;32448;44.960;-0.698;2022-09-11T13:02:59;101099.06;;;29.92;41.50
46718;BME280;32448;44.960;-0.698;2022-09-11T13:05:31;101101.41;;;29.98;41.74
46718;BME280;32448;44.960;-0.698;2022-09-11T13:08:06;101088.69;;;29.85;41.82
46718;BME280;32448;44.960;-0.698;2022-09-11T13:10:42;101084.88;;;29.89;41.60
46718;BME280;32448;44.960;-0.698;2022-09-11T13:16:28;101085.09;;;30.16;42.04
46718;BME280;32448;44.960;-0.698;2022-09-11T13:19:11;101071.59;;;30.16;42.17
46718;BME280;32448;44.960;-0.698;2022-09-11T13:21:39;101073.69;;;30.40;41.38
46718;BME280;32448;44.960;-0.698;2022-09-11T13:24:24;101057.91;;;30.34;40.86
46718;BME280;32448;44.960;-0.698;2022-09-11T13:26:56;101057.25;;;30.45;39.59
46718;BME280;32448;44.960;-0.698;2022-09-11T13:29:29;101061.47;;;30.35;40.64
46718;BME280;32448;44.960;-0.698;2022-09-11T13:31:57;101045.56;;;30.30;40.69
46718;BME280;32448;44.960;-0.698;2022-09-11T13:34:27;101048.75;;;30.37;40.33
46718;BME280;32448;44.960;-0.698;2022-09-11T13:36:56;101046.25;;;30.34;41.08
46718;BME280;32448;44.960;-0.698;2022-09-11T13:39:24;101036.09;;;30.23;40.41
46718;BME280;32448;44.960;-0.698;2022-09-11T13:41:58;101034.06;;;30.27;40.75
46718;BME280;32448;44.960;-0.698;2022-09-11T13:44:59;101031.50;;;30.25;40.74
46718;BME280;32448;44.960;-0.698;2022-09-11T13:47:26;101026.53;;;30.18;40.28
46718;BME280;32448;44.960;-0.698;2022-09-11T13:49:56;101011.75;;;30.25;39.39
46718;BME280;32448;44.960;-0.698;2022-09-11T13:52:25;101023.63;;;30.36;40.61
46718;BME280;32448;44.960;-0.698;2022-09-11T13:54:56;101016.19;;;30.40;40.54
46718;BME280;32448;44.960;-0.698;2022-09-11T13:57:25;101016.31;;;30.53;40.06
46718;BME280;32448;44.960;-0.698;2022-09-11T13:59:56;101025.97;;;30.57;39.32
46718;BME280;32448;44.960;-0.698;2022-09-11T14:05:22;101028.19;;;30.64;40.66
46718;BME280;32448;44.960;-0.698;2022-09-11T14:10:47;101006.78;;;30.61;40.50
46718;BME280;32448;44.960;-0.698;2022-09-11T14:21:21;101003.59;;;30.83;39.21
46718;BME280;32448;44.960;-0.698;2022-09-11T14:23:56;100985.78;;;30.81;39.29
46718;BME280;32448;44.960;-0.698;2022-09-11T14:26:24;100991.19;;;30.81;39.27
46718;BME280;32448;44.960;-0.698;2022-09-11T14:29:05;100965.06;;;30.67;38.82
46718;BME280;32448;44.960;-0.698;2022-09-11T14:31:47;100984.31;;;30.89;38.62
46718;BME280;32448;44.960;-0.698;2022-09-11T14:42:16;100967.34;;;30.87;39.30
46718;BME280;32448;44.960;-0.698;2022-09-11T14:44:43;100967.06;;;30.92;39.13
46718;BME280;32448;44.960;-0.698;2022-09-11T14:47:27;100963.69;;;30.88;39.11
46718;BME280;32448;44.960;-0.698;2022-09-11T14:49:55;100959.16;;;30.74;38.13
46718;BME280;32448;44.960;-0.698;2022-09-11T14:52:25;100954.94;;;30.70;38.60
46718;BME280;32448;44.960;-0.698;2022-09-11T14:54:51;100957.69;;;30.83;38.53